Time;durP1;ratioP1;P1;durP2;ratioP2;P2;SDS_P1;SDS_P2;PMS_P1;PMS_P2;Temp;Humidity;BMP_temperature;BMP_pressure;BME280_temperature;BME280_humidity;BME280_pressure;Samples;Min_cycle;Max_cycle;Signal;HPM_P1;HPM_P2
2021/12/17 00:07:04;;;;;;;56.47;20.30;;;;;;;7.52;100.00;100044.72;5046231;28;20063;-56
2021/12/17 00:09:29;;;;;;;57.88;20.30;;;;;;;7.42;100.00;100040.34;5049277;28;20051;-54
2021/12/17 00:11:54;;;;;;;58.97;22.55;;;;;;;7.17;100.00;100048.88;5047096;28;20947;-54
2021/12/17 00:14:27;;;;;;;67.20;21.88;;;;;;;7.27;100.00;100040.28;5047912;28;20483;-54
2021/12/17 00:16:58;;;;;;;51.53;18.75;;;;;;;7.14;100.00;100039.34;5046836;28;20052;-55
2021/12/17 00:19:42;;;;;;;79.15;22.08;;;;;;;7.29;100.00;100020.38;5046379;28;20319;-55
2021/12/17 00:49:17;;;;;;;51.80;18.48;;;;;;;7.00;100.00;100022.81;5044399;28;20527;-54
2021/12/17 00:54:28;;;;;;;36.15;13.55;;;;;;;7.04;100.00;100002.09;5048072;28;20045;-54
2021/12/17 00:56:55;;;;;;;58.58;19.80;;;;;;;6.84;100.00;100014.09;5047030;28;20036;-54
2021/12/17 00:59:21;;;;;;;555.22;28.02;;;;;;;5.98;100.00;100009.94;5046689;28;20597;-54
2021/12/17 01:01:48;;;;;;;73.22;18.20;;;;;;;6.49;100.00;100014.72;5045779;28;20091;-55
2021/12/17 01:04:14;;;;;;;47.40;16.15;;;;;;;6.48;100.00;100010.38;5044939;28;20036;-54
2021/12/17 01:06:40;;;;;;;57.72;17.45;;;;;;;6.42;100.00;100010.34;5044404;28;20426;-56
2021/12/17 01:09:08;;;;;;;55.22;18.48;;;;;;;6.32;100.00;100010.25;5048759;28;20065;-55
2021/12/17 01:11:34;;;;;;;122.15;19.38;;;;;;;6.31;100.00;100005.06;5045815;28;20041;-54
2021/12/17 01:13:59;;;;;;;53.38;17.75;;;;;;;6.32;100.00;100004.19;5048255;28;20036;-55
2021/12/17 01:16:25;;;;;;;49.55;18.52;;;;;;;6.33;100.00;100001.59;5044348;28;20037;-54
2021/12/17 01:21:41;;;;;;;62.25;18.25;;;;;;;6.63;100.00;100002.69;5043552;28;20124;-55
2021/12/17 01:24:18;;;;;;;201.75;24.50;;;;;;;6.56;100.00;100006.09;5044799;28;20029;-54
2021/12/17 01:43:05;;;;;;;184.55;21.75;;;;;;;6.53;100.00;99998.31;5047013;28;20031;-55
2021/12/17 01:45:36;;;;;;;144.35;19.63;;;;;;;6.79;100.00;99995.91;5044849;28;20025;-54
2021/12/17 01:48:06;;;;;;;109.32;20.10;;;;;;;6.62;100.00;99998.38;5043894;28;20463;-54
2021/12/17 01:56:17;;;;;;;272.23;21.95;;;;;;;6.37;100.00;100003.38;5044708;28;20047;-56
2021/12/17 02:01:29;;;;;;;458.95;23.00;;;;;;;6.51;100.00;100002.63;5046433;28;20085;-56
2021/12/17 02:03:55;;;;;;;202.23;20.23;;;;;;;6.44;100.00;99987.88;5044656;28;20025;-57
2021/12/17 02:06:22;;;;;;;190.70;18.63;;;;;;;6.47;100.00;99998.25;5043958;28;20048;-56
2021/12/17 02:08:49;;;;;;;213.95;20.50;;;;;;;6.69;100.00;99992.38;5044715;28;20028;-55
2021/12/17 02:32:56;;;;;;;249.48;18.58;;;;;;;6.14;100.00;99976.41;5046274;28;20067;-55
2021/12/17 02:35:32;;;;;;;354.27;19.60;;;;;;;6.18;100.00;99985.94;5045321;28;20124;-55
2021/12/17 02:38:00;;;;;;;398.85;19.88;;;;;;;6.39;100.00;99974.00;5044831;28;20098;-55
2021/12/17 02:45:48;;;;;;;265.02;16.98;;;;;;;6.42;100.00;99966.25;5045013;28;20037;-56
2021/12/17 02:48:23;;;;;;;374.67;19.92;;;;;;;6.32;100.00;99963.59;5045577;28;20021;-57
2021/12/17 02:50:54;;;;;;;394.42;18.60;;;;;;;6.09;100.00;99962.53;5043617;28;20087;-55
2021/12/17 02:53:21;;;;;;;255.75;17.25;;;;;;;6.21;100.00;99975.59;5042757;28;20066;-56
2021/12/17 02:55:53;;;;;;;150.82;13.80;;;;;;;6.43;100.00;99966.25;5043909;28;20116;-55
2021/12/17 02:58:21;;;;;;;321.88;16.67;;;;;;;6.16;100.00;99961.75;5044731;28;20123;-55
2021/12/17 03:00:46;;;;;;;339.63;18.88;;;;;;;6.06;100.00;99962.50;5043913;28;20033;-55
2021/12/17 03:03:12;;;;;;;232.85;16.88;;;;;;;6.19;100.00;99961.75;5044666;28;20181;-56
2021/12/17 03:05:40;;;;;;;179.45;14.95;;;;;;;6.27;100.00;99947.16;5042324;28;20036;-56
2021/12/17 03:08:11;;;;;;;200.60;15.63;;;;;;;6.33;100.00;99952.38;5043163;28;20670;-55
2021/12/17 03:10:37;;;;;;;290.17;17.27;;;;;;;6.02;100.00;99951.25;5051824;28;20557;-55
2021/12/17 03:13:04;;;;;;;253.65;17.70;;;;;;;6.34;100.00;99954.13;5044642;28;20029;-56
2021/12/17 03:23:41;;;;;;;177.70;14.43;;;;;;;6.20;100.00;99966.09;5043778;28;20075;-55
2021/12/17 03:26:26;;;;;;;129.45;12.88;;;;;;;6.05;100.00;99968.56;5044112;28;20037;-54
2021/12/17 03:28:55;;;;;;;192.65;14.02;;;;;;;6.06;100.00;99970.28;5044423;28;20032;-55
2021/12/17 03:31:22;;;;;;;135.77;12.48;;;;;;;6.29;100.00;99957.53;5059127;28;20037;-55
2021/12/17 03:33:50;;;;;;;135.65;11.77;;;;;;;6.21;100.00;99979.91;5042994;28;20486;-56
2021/12/17 03:36:17;;;;;;;97.25;11.63;;;;;;;6.33;100.00;99970.50;5046928;28;20048;-55
2021/12/17 03:38:46;;;;;;;104.13;12.80;;;;;;;5.82;100.00;99969.16;5042612;28;20163;-56
2021/12/17 03:43:37;;;;;;;101.70;11.20;;;;;;;6.22;100.00;99964.38;5043969;28;20228;-55
2021/12/17 03:46:03;;;;;;;142.40;13.30;;;;;;;5.93;100.00;99964.09;5043986;28;20135;-55
2021/12/17 03:48:35;;;;;;;117.80;11.77;;;;;;;6.04;100.00;99967.66;5045145;28;20089;-55
2021/12/17 03:51:00;;;;;;;142.70;12.10;;;;;;;5.95;100.00;99958.09;5047186;28;20040;-55
2021/12/17 03:53:26;;;;;;;193.05;13.48;;;;;;;5.95;100.00;99952.91;5047216;28;20033;-56
2021/12/17 03:55:51;;;;;;;210.32;12.00;;;;;;;6.05;100.00;99953.03;5049444;28;20141;-56
2021/12/17 03:58:17;;;;;;;225.43;14.55;;;;;;;5.82;100.00;99951.03;5046576;28;20077;-55
2021/12/17 04:00:43;;;;;;;61.60;11.50;;;;;;;6.03;100.00;99959.88;5047046;28;20112;-55
2021/12/17 04:03:08;;;;;;;136.15;10.57;;;;;;;5.99;100.00;99961.56;5048665;28;20152;-55
2021/12/17 04:05:34;;;;;;;90.80;10.27;;;;;;;6.21;100.00;99962.63;5046860;28;20044;-55
2021/12/17 04:07:59;;;;;;;157.63;13.90;;;;;;;5.72;100.00;99962.19;5047603;28;20025;-56
2021/12/17 04:10:27;;;;;;;131.07;11.35;;;;;;;5.77;100.00;99968.25;5047305;28;20107;-56
2021/12/17 04:13:04;;;;;;;111.30;11.68;;;;;;;5.62;100.00;99973.28;5049454;28;20033;-55
2021/12/17 04:15:36;;;;;;;91.93;11.55;;;;;;;5.85;100.00;99965.75;5047707;28;20045;-55
2021/12/17 04:18:07;;;;;;;65.78;10.65;;;;;;;5.73;100.00;99961.31;5046067;28;20111;-54
2021/12/17 04:20:32;;;;;;;98.05;10.95;;;;;;;5.82;100.00;99963.13;5048752;28;20033;-56
2021/12/17 04:22:58;;;;;;;118.15;10.93;;;;;;;5.76;100.00;99959.63;5046893;28;20079;-55
2021/12/17 04:25:25;;;;;;;56.33;9.82;;;;;;;5.78;100.00;99960.50;5048655;28;20064;-55
2021/12/17 04:27:50;;;;;;;60.92;9.02;;;;;;;5.59;100.00;99967.22;5046375;28;20721;-55
2021/12/17 04:30:16;;;;;;;51.15;8.73;;;;;;;5.67;100.00;99971.59;5047027;28;20100;-55
2021/12/17 04:32:41;;;;;;;38.10;7.60;;;;;;;5.41;100.00;99973.06;5046821;28;20033;-55
2021/12/17 04:35:07;;;;;;;24.33;6.70;;;;;;;5.82;100.00;99971.75;5044359;28;20033;-55
2021/12/17 04:37:33;;;;;;;37.42;8.68;;;;;;;5.64;100.00;99981.91;5046725;28;20023;-54
2021/12/17 04:39:59;;;;;;;40.28;8.13;;;;;;;5.63;100.00;99980.19;5049589;28;20028;-55
2021/12/17 04:42:39;;;;;;;37.85;7.18;;;;;;;5.60;100.00;99981.88;5046022;28;20035;-56
2021/12/17 04:45:04;;;;;;;44.38;7.28;;;;;;;5.41;100.00;99978.22;5045223;28;20047;-55
2021/12/17 04:58:26;;;;;;;81.57;8.38;;;;;;;5.13;100.00;99984.78;5048034;28;20035;-55
2021/12/17 05:00:52;;;;;;;111.85;8.82;;;;;;;5.13;100.00;99982.22;5048411;28;20053;-56
2021/12/17 05:03:17;;;;;;;100.07;8.85;;;;;;;5.33;100.00;99981.56;5046116;28;20028;-56
2021/12/17 05:05:42;;;;;;;121.70;8.52;;;;;;;5.26;100.00;99988.41;5046484;28;20033;-55
2021/12/17 05:08:13;;;;;;;95.40;7.85;;;;;;;5.40;100.00;99993.72;5046820;28;20024;-55
2021/12/17 05:18:45;;;;;;;42.30;7.72;;;;;;;5.13;100.00;100002.03;5046482;28;20032;-55
2021/12/17 05:21:11;;;;;;;133.23;8.05;;;;;;;5.16;100.00;99995.16;5044946;28;20033;-55
2021/12/17 05:23:41;;;;;;;81.32;8.57;;;;;;;5.22;100.00;99994.41;5046246;28;20472;-56
2021/12/17 05:26:08;;;;;;;81.15;9.98;;;;;;;5.01;100.00;100001.00;5046020;28;20091;-55
2021/12/17 05:28:35;;;;;;;96.63;8.02;;;;;;;5.06;100.00;99998.50;5044407;28;20033;-56
2021/12/17 05:31:01;;;;;;;98.75;7.85;;;;;;;5.07;100.00;100000.22;5044951;28;20534;-55
2021/12/17 05:33:27;;;;;;;126.50;8.82;;;;;;;5.01;100.00;100002.72;5045924;28;20089;-56
2021/12/17 05:35:53;;;;;;;58.35;7.53;;;;;;;5.16;100.00;100009.81;5046785;28;20029;-56
2021/12/17 05:38:21;;;;;;;66.97;7.80;;;;;;;5.18;100.00;100006.44;5045637;28;20021;-56
2021/12/17 05:40:46;;;;;;;56.80;7.38;;;;;;;5.13;100.00;100002.91;5045048;28;20778;-55
2021/12/17 05:43:14;;;;;;;116.35;8.63;;;;;;;5.10;100.00;100005.44;5044179;28;20032;-56
2021/12/17 05:48:26;;;;;;;98.68;7.80;;;;;;;5.10;100.00;100015.78;5044411;28;20071;-56
2021/12/17 05:50:57;;;;;;;90.15;9.07;;;;;;;4.87;100.00;100022.34;5044410;28;20037;-55
2021/12/17 05:53:24;;;;;;;69.18;8.57;;;;;;;4.92;100.00;100020.72;5046523;28;20031;-56
2021/12/17 05:55:49;;;;;;;97.32;9.93;;;;;;;4.81;100.00;100029.16;5045717;28;20067;-56
2021/12/17 05:58:16;;;;;;;126.15;8.45;;;;;;;4.86;100.00;100028.38;5044614;28;20120;-56
2021/12/17 06:00:42;;;;;;;110.53;8.35;;;;;;;4.66;100.00;100018.59;5044854;28;20037;-57
2021/12/17 06:03:08;;;;;;;125.88;8.48;;;;;;;4.56;100.00;100020.19;5043522;28;20174;-56
2021/12/17 06:05:34;;;;;;;113.80;7.25;;;;;;;4.59;100.00;100021.94;5047969;28;20159;-57
2021/12/17 06:08:00;;;;;;;48.40;7.75;;;;;;;4.56;100.00;100016.75;5049427;28;20024;-58
2021/12/17 06:10:25;;;;;;;70.82;7.35;;;;;;;4.57;100.00;100018.47;5048262;28;20029;-55
2021/12/17 06:12:51;;;;;;;61.10;7.20;;;;;;;4.83;100.00;100012.00;5048799;28;20029;-55
2021/12/17 06:15:20;;;;;;;77.32;6.68;;;;;;;4.85;100.00;100009.41;5048584;28;20107;-56
2021/12/17 06:17:46;;;;;;;81.05;6.75;;;;;;;4.56;100.00;100007.28;5046840;28;20055;-56
2021/12/17 06:20:13;;;;;;;92.07;7.55;;;;;;;4.46;100.00;100015.72;5048107;28;20032;-55
2021/12/17 06:22:39;;;;;;;55.55;6.57;;;;;;;4.75;100.00;100005.81;5047236;28;20048;-56
2021/12/17 06:25:06;;;;;;;66.72;6.47;;;;;;;4.67;100.00;99999.69;5050816;28;20066;-53
2021/12/17 06:27:31;;;;;;;22.67;6.00;;;;;;;4.86;100.00;100005.13;5049174;28;20063;-55
2021/12/17 06:29:57;;;;;;;97.68;6.45;;;;;;;4.58;100.00;99999.53;5047684;28;20070;-55
2021/12/17 06:32:25;;;;;;;79.47;6.63;;;;;;;4.56;100.00;99996.94;5046624;28;20061;-56
2021/12/17 06:34:51;;;;;;;73.70;7.25;;;;;;;4.57;100.00;99992.63;5047312;28;20060;-57
2021/12/17 06:37:18;;;;;;;12.18;4.50;;;;;;;5.87;100.00;100000.31;5047433;28;20036;-56
2021/12/17 06:39:45;;;;;;;70.25;8.88;;;;;;;5.77;100.00;100001.91;5047004;28;20029;-56
2021/12/17 06:42:11;;;;;;;53.10;8.52;;;;;;;6.73;100.00;100001.91;5045940;28;20095;-55
2021/12/17 06:44:38;;;;;;;98.85;10.57;;;;;;;5.87;100.00;100001.16;5047276;28;20115;-55
2021/12/17 07:34:04;;;;;;;38.80;7.60;;;;;;;4.86;100.00;100015.47;5055609;28;20112;-55
2021/12/17 07:36:45;;;;;;;28.35;6.15;;;;;;;4.54;100.00;100013.25;5053125;28;20037;-56
2021/12/17 07:39:11;;;;;;;90.40;8.23;;;;;;;4.95;100.00;100005.25;5052321;28;20821;-56
2021/12/17 07:41:36;;;;;;;73.43;8.27;;;;;;;4.57;100.00;100005.53;5050340;28;20072;-56
2021/12/17 07:44:02;;;;;;;33.92;6.95;;;;;;;4.86;100.00;100018.91;5052648;28;20052;-57
2021/12/17 07:46:28;;;;;;;29.30;6.90;;;;;;;5.33;100.00;100022.97;5051810;28;20154;-56
2021/12/17 07:48:54;;;;;;;34.90;7.65;;;;;;;5.19;100.00;100028.84;5052343;28;20036;-55
2021/12/17 07:51:21;;;;;;;43.30;7.53;;;;;;;4.73;100.00;100019.59;5050209;28;20066;-57
2021/12/17 07:53:48;;;;;;;44.20;7.00;;;;;;;4.98;100.00;100031.13;5050385;28;20067;-56
2021/12/17 07:56:16;;;;;;;43.53;6.85;;;;;;;5.05;100.00;100030.38;5050880;28;20075;-55
2021/12/17 07:58:42;;;;;;;32.28;7.07;;;;;;;4.87;100.00;100028.41;5047832;28;20879;-55
2021/12/17 08:01:10;;;;;;;17.70;6.13;;;;;;;4.91;100.00;100030.19;5050693;28;20033;-55
2021/12/17 08:03:36;;;;;;;37.42;6.72;;;;;;;4.67;100.00;100041.03;5051894;28;20501;-55
2021/12/17 08:06:02;;;;;;;31.40;5.97;;;;;;;4.78;100.00;100039.50;5051108;28;20037;-55
2021/12/17 08:08:28;;;;;;;43.38;7.22;;;;;;;4.37;100.00;100050.00;5049312;28;20031;-55
2021/12/17 08:10:53;;;;;;;46.45;7.35;;;;;;;4.61;100.00;100040.94;5048289;28;20040;-57
2021/12/17 08:13:22;;;;;;;46.03;6.80;;;;;;;4.52;100.00;100051.13;5050373;28;20028;-56
2021/12/17 08:31:31;;;;;;;55.08;7.05;;;;;;;4.38;100.00;100049.19;5050564;28;20147;-57
2021/12/17 08:33:59;;;;;;;61.83;7.65;;;;;;;4.37;100.00;100039.69;5049423;28;20071;-56
2021/12/17 08:36:24;;;;;;;62.97;8.43;;;;;;;4.28;100.00;100049.84;5052329;28;20044;-55
2021/12/17 08:38:50;;;;;;;71.38;7.95;;;;;;;4.19;100.00;100053.19;5051225;28;20372;-56
2021/12/17 08:41:17;;;;;;;30.48;8.70;;;;;;;4.70;100.00;100041.06;5048712;28;20041;-56
2021/12/17 08:43:43;;;;;;;45.60;7.50;;;;;;;4.74;100.00;100037.72;5049501;28;20601;-57
2021/12/17 08:46:09;;;;;;;42.63;7.88;;;;;;;4.80;100.00;100040.38;5048814;28;20044;-55
2021/12/17 08:48:35;;;;;;;48.05;7.60;;;;;;;4.74;100.00;100057.50;5048767;28;20086;-55
2021/12/17 08:51:02;;;;;;;71.07;8.65;;;;;;;4.27;100.00;100060.19;5051033;28;20797;-55
2021/12/17 08:53:27;;;;;;;14.23;5.22;;;;;;;5.44;100.00;100052.47;5049711;28;20090;-57
2021/12/17 08:55:53;;;;;;;29.40;7.57;;;;;;;5.55;100.00;100048.28;5049823;28;20037;-56
2021/12/17 08:58:18;;;;;;;49.45;7.40;;;;;;;5.44;100.00;100036.94;5049146;28;20892;-56
2021/12/17 09:00:46;;;;;;;30.23;6.45;;;;;;;5.73;100.00;100044.16;5050888;28;20132;-55
2021/12/17 09:03:12;;;;;;;75.72;8.77;;;;;;;5.22;100.00;100047.00;5049604;28;20028;-56
2021/12/17 09:05:40;;;;;;;117.47;9.20;;;;;;;5.11;100.00;100052.88;5048815;28;20048;-56
2021/12/17 09:08:07;;;;;;;37.05;7.78;;;;;;;5.55;100.00;100055.16;5051581;28;20094;-56
2021/12/17 09:10:33;;;;;;;95.38;8.27;;;;;;;5.48;100.00;100049.06;5050461;28;20082;-56
2021/12/17 09:12:59;;;;;;;46.28;8.25;;;;;;;5.44;100.00;100047.28;5049720;28;20067;-55
2021/12/17 09:15:25;;;;;;;55.40;8.00;;;;;;;5.06;100.00;100045.06;5047911;28;20286;-55
2021/12/17 09:17:51;;;;;;;53.08;7.40;;;;;;;5.28;100.00;100045.34;5049236;28;20028;-56
2021/12/17 09:20:17;;;;;;;48.92;8.27;;;;;;;5.15;100.00;100055.53;5047040;28;20025;-56
2021/12/17 09:22:42;;;;;;;67.78;7.63;;;;;;;5.07;100.00;100058.84;5050538;28;20427;-57
2021/12/17 09:25:09;;;;;;;17.73;5.35;;;;;;;5.77;100.00;100053.69;5047408;28;20032;-57
2021/12/17 09:27:34;;;;;;;9.68;4.93;;;;;;;6.71;100.00;100060.69;5050556;28;20119;-56
2021/12/17 09:30:00;;;;;;;17.30;6.47;;;;;;;6.15;100.00;100058.47;5049136;28;20044;-55
2021/12/17 09:32:26;;;;;;;14.05;5.43;;;;;;;6.47;100.00;100052.69;5050495;28;20162;-56
2021/12/17 09:34:51;;;;;;;11.23;5.45;;;;;;;6.37;100.00;100051.75;5048071;28;20148;-55
2021/12/17 09:37:17;;;;;;;16.10;5.80;;;;;;;6.75;100.00;100054.66;5046518;28;20041;-55
2021/12/17 09:39:43;;;;;;;10.80;5.03;;;;;;;6.50;100.00;100055.31;5049443;28;20101;-55
2021/12/17 09:42:08;;;;;;;15.90;6.18;;;;;;;6.44;100.00;100056.16;5049071;28;20224;-55
2021/12/17 09:44:34;;;;;;;10.98;5.07;;;;;;;6.68;100.00;100050.28;5049321;28;20033;-56
2021/12/17 09:47:00;;;;;;;14.35;5.45;;;;;;;6.81;100.00;100050.38;5046175;28;20132;-54
2021/12/17 09:49:26;;;;;;;12.70;5.07;;;;;;;6.81;100.00;100047.78;5049981;28;20112;-56
2021/12/17 09:51:52;;;;;;;12.57;5.72;;;;;;;6.29;100.00;100051.69;5049412;28;20477;-55
2021/12/17 09:54:18;;;;;;;17.63;6.15;;;;;;;5.77;100.00;100056.28;5051020;28;20037;-56
2021/12/17 09:56:44;;;;;;;14.57;6.32;;;;;;;6.25;100.00;100049.94;5045674;28;20684;-57
2021/12/17 09:59:10;;;;;;;35.47;6.05;;;;;;;5.76;100.00;100028.66;5048561;28;20025;-56
2021/12/17 10:01:41;;;;;;;21.30;6.30;;;;;;;5.73;100.00;100039.00;5049746;28;20380;-56
2021/12/17 10:04:16;;;;;;;10.98;5.18;;;;;;;6.26;100.00;100035.25;5047463;28;20036;-55
2021/12/17 10:06:43;;;;;;;13.57;6.28;;;;;;;6.39;100.00;100034.50;5047731;28;20043;-55
2021/12/17 10:09:09;;;;;;;25.08;7.05;;;;;;;6.02;100.00;100047.09;5047656;28;20457;-55
2021/12/17 10:11:34;;;;;;;17.42;7.00;;;;;;;5.64;100.00;100057.00;5048174;28;20033;-54
2021/12/17 10:14:19;;;;;;;15.57;6.70;;;;;;;5.86;100.00;100058.13;5048215;28;20149;-54
2021/12/17 10:16:45;;;;;;;9.43;4.80;;;;;;;6.66;100.00;100052.00;5047277;28;20697;-55
2021/12/17 10:19:10;;;;;;;14.90;6.40;;;;;;;6.24;100.00;100058.56;5051037;28;20033;-55
2021/12/17 10:21:45;;;;;;;15.25;6.38;;;;;;;5.86;100.00;100056.41;5046964;28;20064;-55
2021/12/17 10:24:21;;;;;;;12.85;5.97;;;;;;;5.92;100.00;100066.84;5048681;28;20391;-57
2021/12/17 10:26:46;;;;;;;15.52;6.88;;;;;;;5.81;100.00;100065.84;5049402;28;20041;-55
2021/12/17 10:29:20;;;;;;;14.13;6.38;;;;;;;6.07;100.00;100065.31;5048031;28;20035;-55
2021/12/17 10:31:57;;;;;;;13.95;6.25;;;;;;;6.33;100.00;100058.63;5047248;28;20033;-55
2021/12/17 10:34:24;;;;;;;13.85;6.40;;;;;;;5.81;100.00;100063.28;5049095;28;20025;-56
2021/12/17 10:36:50;;;;;;;14.82;7.18;;;;;;;6.13;100.00;100066.22;5045992;28;20032;-55
2021/12/17 10:39:30;;;;;;;11.55;5.45;;;;;;;6.99;100.00;100053.09;5048171;28;20032;-55
2021/12/17 10:41:56;;;;;;;11.10;5.15;;;;;;;6.59;100.00;100058.00;5046495;28;20116;-55
2021/12/17 10:44:22;;;;;;;9.02;4.82;;;;;;;7.43;100.00;100051.63;5046884;28;20123;-55
2021/12/17 10:47:06;;;;;;;9.30;4.97;;;;;;;7.90;100.00;100053.50;5047370;28;20037;-56
2021/12/17 10:49:31;;;;;;;7.43;3.78;;;;;;;8.22;100.00;100045.78;5048205;28;20090;-56
2021/12/17 10:52:14;;;;;;;7.90;4.47;;;;;;;8.02;100.00;100037.94;5045640;28;20037;-56
2021/12/17 10:54:39;;;;;;;14.10;6.78;;;;;;;6.70;100.00;100047.72;5048208;28;20028;-55
2021/12/17 10:57:07;;;;;;;11.95;5.95;;;;;;;6.90;100.00;100042.66;5046663;28;20403;-56
2021/12/17 10:59:35;;;;;;;13.98;5.82;;;;;;;6.96;100.00;100040.09;5049753;28;20024;-57
2021/12/17 11:02:10;;;;;;;17.73;7.60;;;;;;;6.59;100.00;100039.84;5053019;28;20661;-56
2021/12/17 11:04:38;;;;;;;11.95;5.50;;;;;;;7.17;100.00;100039.38;5050651;28;20028;-56
2021/12/17 11:07:13;;;;;;;13.55;6.55;;;;;;;7.11;100.00;100040.22;5051907;28;20550;-57
2021/12/17 11:09:50;;;;;;;15.57;6.90;;;;;;;7.13;100.00;100046.28;5052063;28;20757;-57
2021/12/17 11:12:25;;;;;;;14.88;7.05;;;;;;;6.55;100.00;100038.09;5050310;28;20033;-55
2021/12/17 11:14:52;;;;;;;13.88;6.35;;;;;;;7.14;100.00;100035.00;5052578;28;20462;-54
2021/12/17 11:17:22;;;;;;;10.32;5.15;;;;;;;7.26;100.00;100028.16;5052069;28;20075;-56
2021/12/17 11:19:53;;;;;;;17.60;8.10;;;;;;;7.00;100.00;100034.06;5054055;28;20036;-55
2021/12/17 11:22:18;;;;;;;17.95;8.10;;;;;;;6.46;100.00;100038.00;5051037;28;20033;-55
2021/12/17 11:24:44;;;;;;;14.68;6.80;;;;;;;7.06;100.00;100031.53;5052965;28;20465;-56
2021/12/17 11:27:09;;;;;;;14.30;6.18;;;;;;;7.05;100.00;100024.59;5048641;28;20102;-56
2021/12/17 11:29:35;;;;;;;12.60;5.45;;;;;;;7.42;100.00;100023.91;5050472;28;20294;-56
2021/12/17 11:32:03;;;;;;;11.45;5.88;;;;;;;7.52;100.00;100015.31;5048522;28;20040;-55
2021/12/17 11:34:30;;;;;;;16.95;7.65;;;;;;;7.08;100.00;100015.97;5050216;28;20060;-57
2021/12/17 11:36:58;;;;;;;15.27;6.80;;;;;;;6.88;100.00;100016.72;5050071;28;20529;-55
2021/12/17 11:39:31;;;;;;;15.63;7.82;;;;;;;7.18;100.00;100015.13;5051009;28;20072;-55
2021/12/17 11:42:16;;;;;;;12.73;6.90;;;;;;;7.93;100.00;100004.16;5059447;28;20033;-55
2021/12/17 11:44:51;;;;;;;16.02;7.78;;;;;;;6.34;100.00;100016.31;5051735;28;20025;-55
2021/12/17 11:47:17;;;;;;;17.58;8.45;;;;;;;6.81;100.00;100022.72;5053404;28;20040;-56
2021/12/17 11:49:48;;;;;;;13.48;6.10;;;;;;;7.10;100.00;100014.25;5052079;28;20029;-55
2021/12/17 11:52:14;;;;;;;6.85;3.90;;;;;;;10.08;100.00;100007.97;5051245;28;20076;-55
2021/12/17 11:54:40;;;;;;;9.93;5.38;;;;;;;7.47;100.00;99997.09;5051366;28;20024;-55
2021/12/17 11:57:05;;;;;;;9.82;5.13;;;;;;;7.52;100.00;100000.56;5049005;28;20391;-55
2021/12/17 11:59:34;;;;;;;5.68;3.30;;;;;;;10.94;100.00;100002.06;5049156;28;20031;-55
2021/12/17 12:02:19;;;;;;;6.18;3.67;;;;;;;11.12;100.00;99992.25;5049493;28;20025;-56
2021/12/17 12:05:03;;;;;;;6.35;3.63;;;;;;;9.11;100.00;99999.78;5048256;28;20062;-56
2021/12/17 12:07:28;;;;;;;6.70;3.95;;;;;;;12.22;91.25;99994.31;5029026;28;20041;-56
2021/12/17 12:10:11;;;;;;;7.65;4.15;;;;;;;10.32;100.00;99995.66;5028828;28;20044;-56
2021/12/17 12:12:46;;;;;;;4.95;2.92;;;;;;;13.23;93.31;99996.88;5049966;28;20055;-56
2021/12/17 12:15:23;;;;;;;5.60;3.28;;;;;;;11.96;76.42;99995.56;5050342;28;20473;-55
2021/12/17 12:18:06;;;;;;;4.50;3.15;;;;;;;11.46;100.00;99997.09;5048480;28;20036;-55
2021/12/17 12:20:51;;;;;;;3.92;2.70;;;;;;;13.34;99.24;99996.69;5051503;28;20106;-56
2021/12/17 12:23:31;;;;;;;4.18;2.80;;;;;;;14.07;88.53;99983.72;5049667;28;20031;-55
2021/12/17 12:26:08;;;;;;;3.65;2.42;;;;;;;13.48;89.73;99978.91;5048846;28;20041;-55
2021/12/17 12:28:45;;;;;;;4.70;2.70;;;;;;;13.69;94.87;99973.22;5049330;28;20032;-56
2021/12/17 12:31:16;;;;;;;5.07;2.90;;;;;;;14.22;67.67;99959.72;5047614;28;20168;-55
2021/12/17 12:34:00;;;;;;;4.68;3.15;;;;;;;13.13;94.73;99964.75;5049445;28;20064;-56
2021/12/17 12:36:47;;;;;;;6.90;4.43;;;;;;;8.63;94.95;99969.50;5049528;28;20500;-55
2021/12/17 12:39:24;;;;;;;8.63;4.75;;;;;;;8.24;98.33;99986.84;5050297;28;20407;-55
2021/12/17 12:42:21;;;;;;;4.05;3.05;;;;;;;9.32;100.00;99986.69;5046219;28;20061;-57
2021/12/17 12:44:49;;;;;;;4.28;2.80;;;;;;;10.61;100.00;99992.81;5042622;28;20527;-57
2021/12/17 12:47:42;;;;;;;4.07;2.88;;;;;;;12.50;95.36;99987.75;5050245;28;20461;-55
2021/12/17 12:50:17;;;;;;;3.80;2.63;;;;;;;13.61;89.39;99987.38;5051538;28;20032;-57
2021/12/17 12:53:03;;;;;;;9.20;5.72;;;;;;;8.71;83.45;99994.66;5050222;28;20052;-57
2021/12/17 12:55:36;;;;;;;5.55;3.40;;;;;;;11.95;99.97;99997.31;5050326;28;20029;-56
2021/12/17 12:58:08;;;;;;;3.55;2.63;;;;;;;14.50;82.34;99989.69;5050451;28;20043;-58
2021/12/17 13:00:36;;;;;;;3.85;2.70;;;;;;;13.43;86.48;99992.13;5050954;28;20462;-56
2021/12/17 13:03:04;;;;;;;3.90;2.65;;;;;;;12.26;76.53;99990.75;5050801;28;20584;-55
2021/12/17 13:05:30;;;;;;;6.53;2.75;;;;;;;12.44;83.21;99984.34;5049282;28;20036;-57
2021/12/17 13:07:59;;;;;;;5.85;3.33;;;;;;;12.80;83.27;99995.94;5048855;28;20032;-55
2021/12/17 13:10:36;;;;;;;3.90;2.55;;;;;;;12.46;81.07;99993.94;5049473;28;20524;-55
2021/12/17 13:13:03;;;;;;;6.43;4.15;;;;;;;9.90;80.83;99995.91;5048235;28;20032;-56
2021/12/17 13:23:21;;;;;;;4.50;2.75;;;;;;;10.77;81.78;99998.72;5047566;28;20024;-56
2021/12/17 13:26:03;;;;;;;5.72;3.30;;;;;;;9.78;91.19;99991.66;5049926;28;20632;-56
2021/12/17 13:28:28;;;;;;;6.80;4.13;;;;;;;9.55;90.67;99996.97;5046185;28;20482;-56
2021/12/17 13:30:56;;;;;;;4.32;2.65;;;;;;;11.32;100.00;99995.53;5049538;28;20054;-56
2021/12/17 13:33:21;;;;;;;5.15;3.45;;;;;;;11.36;82.94;99978.94;5058111;28;20164;-57
2021/12/17 13:35:47;;;;;;;9.95;6.90;;;;;;;7.79;86.44;99982.47;5048508;28;20116;-55
2021/12/17 13:38:12;;;;;;;10.20;6.78;;;;;;;7.45;95.44;99978.03;5047311;28;20117;-57
2021/12/17 13:40:38;;;;;;;11.80;6.60;;;;;;;7.31;94.46;99984.91;5047972;28;20119;-55
2021/12/17 13:43:03;;;;;;;11.18;7.18;;;;;;;7.28;95.08;99990.97;5049331;28;20024;-55
2021/12/17 13:45:30;;;;;;;8.55;5.20;;;;;;;7.67;100.00;99994.56;5050020;28;20061;-56
2021/12/17 13:47:57;;;;;;;11.35;7.60;;;;;;;7.58;93.86;99988.47;5049307;28;20067;-56
2021/12/17 13:50:29;;;;;;;9.52;4.95;;;;;;;8.13;92.75;99991.19;5048935;28;20032;-55
2021/12/17 13:53:00;;;;;;;10.53;6.47;;;;;;;7.72;99.24;99987.66;5048735;28;20036;-56
2021/12/17 13:55:41;;;;;;;6.53;3.92;;;;;;;11.61;81.23;99981.22;5048080;28;20068;-56
2021/12/17 13:58:16;;;;;;;6.72;4.32;;;;;;;10.18;84.11;99985.28;5048580;28;20033;-55
2021/12/17 14:00:51;;;;;;;6.28;3.78;;;;;;;10.93;86.10;99982.03;5046656;28;20041;-57
2021/12/17 14:03:19;;;;;;;4.30;2.72;;;;;;;14.71;75.38;99973.41;5047395;28;20012;-55
2021/12/17 14:05:49;;;;;;;4.25;2.85;;;;;;;12.69;84.00;99966.47;5048620;28;20047;-55
2021/12/17 14:08:18;;;;;;;3.88;2.75;;;;;;;14.45;82.02;99963.56;5047585;28;20055;-55
2021/12/17 14:10:43;;;;;;;4.05;2.70;;;;;;;13.98;77.14;99955.06;5056598;28;20037;-55
2021/12/17 14:13:20;;;;;;;7.13;3.90;;;;;;;12.28;84.70;99947.13;5047561;28;20167;-57
2021/12/17 14:15:47;;;;;;;5.68;2.75;;;;;;;12.43;77.08;99944.25;5047662;28;20043;-55
2021/12/17 14:18:23;;;;;;;4.32;3.05;;;;;;;12.24;76.70;99934.97;5047186;28;20017;-55
2021/12/17 14:20:59;;;;;;;9.75;6.45;;;;;;;10.36;71.38;99948.66;5048901;28;20040;-57
2021/12/17 14:23:30;;;;;;;12.73;7.85;;;;;;;7.66;86.41;99958.19;5047414;28;20028;-55
2021/12/17 14:25:57;;;;;;;14.05;8.38;;;;;;;7.73;88.92;99970.31;5048861;28;20119;-54
2021/12/17 14:28:25;;;;;;;7.90;4.90;;;;;;;8.05;98.49;99972.09;5047674;28;20025;-54
2021/12/17 14:31:04;;;;;;;4.97;3.28;;;;;;;12.36;100.00;99971.41;5047941;28;20049;-56
2021/12/17 14:33:35;;;;;;;4.85;3.20;;;;;;;12.64;74.47;99957.81;5047110;28;20032;-55
2021/12/17 14:36:02;;;;;;;4.73;3.10;;;;;;;10.76;86.29;99965.69;5047208;28;20044;-55
2021/12/17 14:38:51;;;;;;;4.93;3.17;;;;;;;12.53;84.14;99966.75;5047491;28;20475;-55
2021/12/17 14:41:23;;;;;;;4.22;2.75;;;;;;;14.56;78.69;99969.38;5047465;28;20056;-55